Time;durP1;ratioP1;P1;durP2;ratioP2;P2;SDS_P1;SDS_P2;PMS_P1;PMS_P2;Temp;Humidity;BMP_temperature;BMP_pressure;BME280_temperature;BME280_humidity;BME280_pressure;Samples;Min_cycle;Max_cycle;Signal;HPM_P1;HPM_P2
2021/10/01 00:01:06;;;;;;;3.38;1.52;;;20.60;55.20;;;;;;5134869;27;20478;-60
2021/10/01 00:03:32;;;;;;;3.70;1.40;;;20.60;55.20;;;;;;5134509;27;20027;-60
2021/10/01 00:05:57;;;;;;;4.60;1.73;;;20.60;55.20;;;;;;5134473;27;20034;-61
2021/10/01 00:08:23;;;;;;;4.50;1.67;;;20.60;55.20;;;;;;5134657;27;20054;-60
2021/10/01 00:10:48;;;;;;;3.30;1.50;;;20.60;55.20;;;;;;5134460;27;20051;-60
2021/10/01 00:13:14;;;;;;;4.78;1.83;;;20.60;55.20;;;;;;5134419;27;20058;-60
2021/10/01 00:15:39;;;;;;;5.18;1.63;;;20.60;55.20;;;;;;5134320;27;20043;-60
2021/10/01 00:18:05;;;;;;;5.88;1.95;;;20.60;55.20;;;;;;5134293;27;20447;-60
2021/10/01 00:20:31;;;;;;;4.53;1.75;;;20.60;55.10;;;;;;5134142;27;20046;-60
2021/10/01 00:22:56;;;;;;;5.25;2.17;;;20.50;55.20;;;;;;5134420;27;20066;-60
2021/10/01 00:25:22;;;;;;;3.60;1.50;;;20.50;55.20;;;;;;5134419;27;20038;-60
2021/10/01 00:27:48;;;;;;;5.20;2.20;;;20.50;55.20;;;;;;5134095;27;20023;-60
2021/10/01 00:30:13;;;;;;;4.10;1.50;;;20.50;55.20;;;;;;5134085;27;20086;-60
2021/10/01 00:32:39;;;;;;;5.53;2.08;;;20.50;55.10;;;;;;5134402;27;20023;-60
2021/10/01 00:35:05;;;;;;;5.13;1.70;;;20.50;55.20;;;;;;5133977;27;20025;-60
2021/10/01 00:37:31;;;;;;;5.15;2.00;;;20.50;55.20;;;;;;5133967;27;20034;-60
2021/10/01 00:39:56;;;;;;;4.43;1.80;;;20.50;55.20;;;;;;5133828;27;20047;-60
2021/10/01 00:42:22;;;;;;;4.32;1.67;;;20.50;55.20;;;;;;5133659;27;20151;-60
2021/10/01 00:44:48;;;;;;;4.68;1.65;;;20.50;55.20;;;;;;5133825;27;20115;-60
2021/10/01 00:47:13;;;;;;;4.90;2.05;;;20.50;55.20;;;;;;5133976;27;20055;-60
2021/10/01 00:49:39;;;;;;;4.20;1.92;;;20.50;55.20;;;;;;5133869;28;20023;-60
2021/10/01 00:52:06;;;;;;;4.70;1.90;;;20.50;55.20;;;;;;5133900;28;20387;-60
2021/10/01 00:54:32;;;;;;;4.28;2.03;;;20.50;55.20;;;;;;5133741;28;20102;-59
2021/10/01 00:56:59;;;;;;;5.65;1.95;;;20.50;55.20;;;;;;5133913;28;20065;-60
2021/10/01 00:59:24;;;;;;;4.95;2.22;;;20.50;55.20;;;;;;5134045;28;20057;-60
2021/10/01 01:01:50;;;;;;;4.35;2.13;;;20.50;55.10;;;;;;5133706;28;20027;-60
2021/10/01 01:04:17;;;;;;;5.05;1.92;;;20.50;55.10;;;;;;5133885;28;20374;-60
2021/10/01 01:06:55;;;;;;;5.93;2.60;;;20.50;55.20;;;;;;5133981;28;20054;-60
2021/10/01 01:09:30;;;;;;;5.57;2.55;;;20.50;55.20;;;;;;5134045;28;20042;-60
2021/10/01 01:12:22;;;;;;;5.40;2.17;;;20.50;55.20;;;;;;5133998;28;20023;-60
2021/10/01 01:14:54;;;;;;;5.35;2.38;;;20.50;55.20;;;;;;5133628;28;20104;-60
2021/10/01 01:17:25;;;;;;;4.93;2.30;;;20.50;55.20;;;;;;5133590;28;20071;-60
2021/10/01 01:20:07;;;;;;;5.05;2.30;;;20.50;55.20;;;;;;5133528;28;20034;-60
2021/10/01 01:22:39;;;;;;;5.50;2.53;;;20.50;55.20;;;;;;5133600;28;20027;-61
2021/10/01 01:25:13;;;;;;;6.28;2.47;;;20.50;55.20;;;;;;5133458;28;20035;-60
2021/10/01 01:28:03;;;;;;;5.10;2.15;;;20.40;55.10;;;;;;5133763;28;20031;-60
2021/10/01 01:30:36;;;;;;;5.43;2.38;;;20.40;55.20;;;;;;5133441;28;20027;-59
2021/10/01 01:33:03;;;;;;;5.28;2.50;;;20.40;55.20;;;;;;5133384;28;20471;-60
2021/10/01 01:35:34;;;;;;;6.13;2.47;;;20.40;55.20;;;;;;5133419;28;20023;-60
2021/10/01 01:38:13;;;;;;;6.50;2.63;;;20.40;55.20;;;;;;5115077;28;20458;-60
2021/10/01 01:40:43;;;;;;;4.80;2.30;;;20.40;55.20;;;;;;5133751;28;20026;-60
2021/10/01 01:43:09;;;;;;;5.88;2.45;;;20.40;55.20;;;;;;5133425;28;20031;-60
2021/10/01 01:45:37;;;;;;;5.32;2.47;;;20.40;55.10;;;;;;5133342;28;20035;-60
2021/10/01 01:48:05;;;;;;;5.60;2.40;;;20.40;55.20;;;;;;5133300;28;20019;-60
2021/10/01 01:50:31;;;;;;;5.13;2.17;;;20.40;55.20;;;;;;5133277;28;20030;-60
2021/10/01 01:52:58;;;;;;;5.97;2.50;;;20.40;55.20;;;;;;5133318;27;20386;-60
2021/10/01 01:55:24;;;;;;;5.38;2.22;;;20.40;55.20;;;;;;5137011;27;20055;-60
2021/10/01 01:57:51;;;;;;;5.47;2.20;;;20.40;55.20;;;;;;5137107;27;20466;-60
2021/10/01 02:00:18;;;;;;;5.18;2.35;;;20.40;55.20;;;;;;5137033;27;20095;-60
2021/10/01 02:02:47;;;;;;;5.30;2.45;;;20.40;55.10;;;;;;5136846;27;20019;-60
2021/10/01 02:05:13;;;;;;;5.47;2.60;;;20.30;55.10;;;;;;5136727;27;20035;-59
2021/10/01 02:07:41;;;;;;;5.93;2.75;;;20.40;55.10;;;;;;5136781;27;20027;-60
2021/10/01 02:10:08;;;;;;;5.80;2.45;;;20.40;55.20;;;;;;5136754;27;20505;-60
2021/10/01 02:12:34;;;;;;;6.40;2.55;;;20.30;55.10;;;;;;5136675;27;20113;-60
2021/10/01 02:15:00;;;;;;;6.53;2.40;;;20.40;55.10;;;;;;5136703;27;20080;-60
2021/10/01 02:17:29;;;;;;;5.93;2.53;;;20.40;55.10;;;;;;5136622;27;20023;-60
2021/10/01 02:19:57;;;;;;;6.03;2.45;;;20.40;55.20;;;;;;5136729;27;20027;-60
2021/10/01 02:22:24;;;;;;;7.28;2.85;;;20.30;55.10;;;;;;5136556;27;20027;-60
2021/10/01 02:24:50;;;;;;;4.85;2.45;;;20.30;55.20;;;;;;5136433;27;20035;-60
2021/10/01 02:27:23;;;;;;;6.03;2.88;;;20.30;55.10;;;;;;5136522;27;20026;-60
2021/10/01 02:30:00;;;;;;;5.28;2.13;;;20.30;55.10;;;;;;5136319;27;20051;-61
2021/10/01 02:32:36;;;;;;;4.97;2.50;;;20.30;55.10;;;;;;5136579;27;20063;-61
2021/10/01 02:35:04;;;;;;;4.85;2.10;;;20.30;55.10;;;;;;5136553;27;20031;-60
2021/10/01 02:37:30;;;;;;;5.60;2.40;;;20.30;55.10;;;;;;5136288;27;20026;-60
2021/10/01 02:39:56;;;;;;;6.05;2.50;;;20.30;55.10;;;;;;5136087;27;20051;-60
2021/10/01 02:42:25;;;;;;;6.97;3.05;;;20.30;55.10;;;;;;5136108;27;20030;-60
2021/10/01 02:44:52;;;;;;;6.47;3.00;;;20.30;55.10;;;;;;5136149;27;20038;-60
2021/10/01 02:47:18;;;;;;;6.78;2.67;;;20.30;55.10;;;;;;5136327;27;20084;-60
2021/10/01 02:49:45;;;;;;;6.15;2.53;;;20.30;55.10;;;;;;5136310;27;20027;-60
2021/10/01 02:52:26;;;;;;;4.25;2.13;;;20.30;55.10;;;;;;5135980;27;20079;-60
2021/10/01 02:55:09;;;;;;;5.72;2.30;;;20.30;55.10;;;;;;5136110;27;20024;-61
2021/10/01 02:57:53;;;;;;;6.60;2.03;;;20.30;55.10;;;;;;5135911;27;20015;-60
2021/10/01 03:00:20;;;;;;;;;;;20.30;55.10;;;;;;5136395;27;20050;-60
2021/10/01 03:02:49;;;;;;;5.72;2.38;;;20.30;55.10;;;;;;5136096;27;19910;-60
2021/10/01 03:05:15;;;;;;;5.68;2.55;;;20.30;55.10;;;;;;5135414;27;20027;-60
2021/10/01 03:07:43;;;;;;;4.95;2.22;;;20.30;55.20;;;;;;5135670;27;20027;-60
2021/10/01 03:10:10;;;;;;;5.38;2.60;;;20.20;55.20;;;;;;5135907;27;20027;-60
2021/10/01 03:12:37;;;;;;;4.40;1.98;;;20.20;55.10;;;;;;5135669;27;20026;-60
2021/10/01 03:15:03;;;;;;;5.22;2.40;;;20.20;55.10;;;;;;5135557;27;20031;-60
2021/10/01 03:17:31;;;;;;;4.38;1.95;;;20.20;55.10;;;;;;5135725;27;20034;-60
2021/10/01 03:19:58;;;;;;;5.07;2.58;;;20.20;55.10;;;;;;5135753;27;20026;-60
2021/10/01 03:22:31;;;;;;;5.47;2.35;;;20.20;55.10;;;;;;5135562;27;20153;-60
2021/10/01 03:24:57;;;;;;;4.60;2.05;;;20.20;55.20;;;;;;5135520;27;20039;-60
2021/10/01 03:27:24;;;;;;;7.72;2.47;;;20.20;55.10;;;;;;5135297;27;20055;-60
2021/10/01 03:29:50;;;;;;;7.13;2.20;;;20.20;55.10;;;;;;5135201;27;20015;-61
2021/10/01 03:32:20;;;;;;;4.65;2.50;;;20.20;55.10;;;;;;5135102;27;20023;-60
2021/10/01 03:34:46;;;;;;;5.03;2.58;;;20.20;55.10;;;;;;5135453;27;20030;-60
2021/10/01 03:37:11;;;;;;;5.90;2.33;;;20.20;55.10;;;;;;5135266;27;20019;-61
2021/10/01 03:39:38;;;;;;;5.50;2.35;;;20.20;55.10;;;;;;5116675;27;20525;-60
2021/10/01 03:42:06;;;;;;;4.85;2.17;;;20.20;55.10;;;;;;5135124;27;20102;-60
2021/10/01 03:44:32;;;;;;;3.80;1.83;;;20.20;55.10;;;;;;5134870;27;20091;-59
2021/10/01 03:46:57;;;;;;;5.75;2.50;;;20.10;55.00;;;;;;5134785;27;20045;-60
2021/10/01 03:49:23;;;;;;;5.60;2.38;;;20.20;55.10;;;;;;5134833;27;20039;-61
2021/10/01 03:51:48;;;;;;;5.20;2.25;;;20.20;55.00;;;;;;5134724;27;20458;-61
2021/10/01 03:54:14;;;;;;;6.07;2.28;;;20.20;55.00;;;;;;5116505;27;20015;-60
2021/10/01 03:56:39;;;;;;;5.65;2.40;;;20.10;55.00;;;;;;5134986;27;20031;-60
2021/10/01 03:59:05;;;;;;;5.70;2.53;;;20.20;55.00;;;;;;5134715;27;20012;-61
2021/10/01 04:01:30;;;;;;;4.57;2.22;;;20.20;54.90;;;;;;5134517;27;20096;-60
2021/10/01 04:03:56;;;;;;;4.65;2.15;;;20.20;55.00;;;;;;5134424;27;20054;-60
2021/10/01 04:06:22;;;;;;;5.35;2.22;;;20.10;55.00;;;;;;5134651;27;20038;-60
2021/10/01 04:08:47;;;;;;;5.32;2.42;;;20.10;55.00;;;;;;5134414;27;20027;-60
2021/10/01 04:11:13;;;;;;;4.85;2.15;;;20.20;55.00;;;;;;5134510;27;20031;-60
2021/10/01 04:13:40;;;;;;;5.78;2.40;;;20.10;55.00;;;;;;5134751;27;20269;-60
2021/10/01 04:16:05;;;;;;;4.15;1.70;;;20.10;54.90;;;;;;5134119;27;20058;-60
2021/10/01 04:18:31;;;;;;;5.00;2.10;;;20.10;54.90;;;;;;5134488;27;20046;-59
2021/10/01 04:20:56;;;;;;;5.75;2.55;;;20.10;54.90;;;;;;5116064;27;20046;-60
2021/10/01 04:23:22;;;;;;;6.28;2.20;;;20.10;54.90;;;;;;5134354;27;20023;-60
2021/10/01 04:25:48;;;;;;;5.85;2.35;;;20.10;54.80;;;;;;5134189;27;20031;-60
2021/10/01 04:28:14;;;;;;;4.88;2.03;;;20.20;54.90;;;;;;5134203;27;20076;-60
2021/10/01 04:30:46;;;;;;;5.35;2.10;;;20.20;54.90;;;;;;5134098;27;20399;-60
2021/10/01 04:33:13;;;;;;;5.82;2.28;;;20.10;54.90;;;;;;5134358;27;20027;-60
2021/10/01 04:35:41;;;;;;;6.55;2.40;;;20.20;54.80;;;;;;5134123;27;20030;-60
2021/10/01 04:38:06;;;;;;;5.32;2.03;;;20.20;54.80;;;;;;5133786;27;20031;-60
2021/10/01 04:40:33;;;;;;;6.03;2.20;;;20.20;54.80;;;;;;5134093;27;20042;-61
2021/10/01 04:42:59;;;;;;;5.13;2.40;;;20.20;54.80;;;;;;5133954;27;20030;-61
2021/10/01 04:45:25;;;;;;;5.00;2.28;;;20.20;54.70;;;;;;5134053;27;20118;-60
2021/10/01 04:47:50;;;;;;;4.07;2.00;;;20.20;54.70;;;;;;5133976;27;20111;-60
2021/10/01 04:50:16;;;;;;;5.05;2.35;;;20.20;54.70;;;;;;5134199;28;20031;-61
2021/10/01 04:52:41;;;;;;;5.03;2.10;;;20.30;54.70;;;;;;5133957;28;20030;-60
2021/10/01 04:55:08;;;;;;;5.40;2.33;;;20.20;54.70;;;;;;5134101;28;20519;-60
2021/10/01 04:57:33;;;;;;;4.90;2.05;;;20.20;54.70;;;;;;5133822;28;20027;-60
2021/10/01 04:59:59;;;;;;;5.22;2.20;;;20.20;54.60;;;;;;5133812;28;20072;-60
2021/10/01 05:02:24;;;;;;;3.90;1.92;;;20.30;54.70;;;;;;5115757;28;20366;-60
2021/10/01 05:04:54;;;;;;;4.63;1.83;;;20.30;54.60;;;;;;5133661;28;20087;-60
2021/10/01 05:07:21;;;;;;;4.95;1.90;;;20.30;54.60;;;;;;5133929;28;20026;-60
2021/10/01 05:09:46;;;;;;;3.47;1.67;;;20.30;54.60;;;;;;5115392;28;20057;-60
2021/10/01 05:12:13;;;;;;;4.57;1.85;;;20.30;54.60;;;;;;5133883;28;20423;-61
2021/10/01 05:14:38;;;;;;;4.63;2.03;;;20.30;54.60;;;;;;5133844;28;20019;-60
2021/10/01 05:17:04;;;;;;;5.97;2.13;;;20.30;54.50;;;;;;5115303;28;20023;-60
2021/10/01 05:19:29;;;;;;;3.50;1.80;;;20.30;54.50;;;;;;5133603;28;20083;-60
2021/10/01 05:21:55;;;;;;;3.75;1.60;;;20.30;54.50;;;;;;5133697;28;20024;-60
2021/10/01 05:24:20;;;;;;;4.40;2.10;;;20.30;54.50;;;;;;5133758;28;20019;-60
2021/10/01 05:26:46;;;;;;;4.00;1.85;;;20.30;54.50;;;;;;5133782;28;20028;-60
2021/10/01 05:29:11;;;;;;;3.75;1.55;;;20.40;54.50;;;;;;5135507;27;20177;-60
2021/10/01 05:31:37;;;;;;;5.50;1.90;;;20.40;54.50;;;;;;5137786;27;20109;-60
2021/10/01 05:34:03;;;;;;;4.05;1.67;;;20.30;54.50;;;;;;5119101;27;20028;-60
2021/10/01 05:36:29;;;;;;;4.55;2.08;;;20.40;54.50;;;;;;5137405;27;20489;-60
2021/10/01 05:38:54;;;;;;;5.57;1.85;;;20.40;54.50;;;;;;5137233;27;20035;-60
2021/10/01 05:41:21;;;;;;;4.28;1.92;;;20.40;54.40;;;;;;5137328;27;20019;-60
2021/10/01 05:43:47;;;;;;;3.83;1.65;;;20.40;54.40;;;;;;5137230;27;20051;-60
2021/10/01 05:46:13;;;;;;;4.50;1.77;;;20.40;54.40;;;;;;5137462;27;20042;-61
2021/10/01 05:48:42;;;;;;;4.07;2.00;;;20.40;54.40;;;;;;5137482;27;20102;-60
2021/10/01 05:51:09;;;;;;;3.80;1.75;;;20.40;54.40;;;;;;5119502;27;20031;-60
2021/10/01 05:53:46;;;;;;;3.95;1.60;;;20.40;54.30;;;;;;5137377;27;20019;-60
2021/10/01 05:56:12;;;;;;;4.28;1.75;;;20.40;54.30;;;;;;5136944;27;20427;-60
2021/10/01 05:58:40;;;;;;;4.82;1.70;;;20.40;54.30;;;;;;5118536;27;20027;-60
2021/10/01 06:01:06;;;;;;;5.28;1.80;;;20.40;54.30;;;;;;5136962;27;20027;-60
2021/10/01 06:03:32;;;;;;;4.35;1.80;;;20.50;54.30;;;;;;5136893;27;20102;-62
2021/10/01 06:05:58;;;;;;;5.43;2.30;;;20.40;54.30;;;;;;5136869;27;20062;-60
2021/10/01 06:08:23;;;;;;;3.53;1.80;;;20.50;54.30;;;;;;5136627;27;20027;-60
2021/10/01 06:10:49;;;;;;;4.85;1.90;;;20.40;54.20;;;;;;5136980;27;20386;-60
2021/10/01 06:13:15;;;;;;;4.53;1.88;;;20.50;54.20;;;;;;5136937;27;20068;-60
2021/10/01 06:15:41;;;;;;;4.30;1.67;;;20.50;54.20;;;;;;5136841;27;20382;-60
2021/10/01 06:18:06;;;;;;;5.25;1.98;;;20.50;54.20;;;;;;5136638;27;20056;-61
2021/10/01 06:20:32;;;;;;;3.75;1.73;;;20.50;54.10;;;;;;5118226;27;20080;-60
2021/10/01 06:22:58;;;;;;;4.20;1.80;;;20.50;54.20;;;;;;5136521;27;20485;-61
2021/10/01 06:25:24;;;;;;;3.65;1.67;;;20.50;54.10;;;;;;5136667;27;20040;-61
2021/10/01 06:27:50;;;;;;;4.45;1.85;;;20.50;54.20;;;;;;5136396;27;20277;-61
2021/10/01 06:30:16;;;;;;;3.88;1.73;;;20.50;54.10;;;;;;5136404;27;20110;-60
2021/10/01 06:32:42;;;;;;;3.58;1.80;;;20.50;54.20;;;;;;5136663;27;20068;-60
2021/10/01 06:35:09;;;;;;;3.88;1.73;;;20.50;54.10;;;;;;5117989;27;20023;-60
2021/10/01 06:37:35;;;;;;;3.50;1.65;;;20.50;54.10;;;;;;5136165;27;20023;-60
2021/10/01 06:40:01;;;;;;;3.80;1.63;;;20.50;54.10;;;;;;5135499;27;20043;-60
2021/10/01 06:42:26;;;;;;;6.00;2.20;;;20.60;54.00;;;;;;5136306;27;20026;-60
2021/10/01 06:44:55;;;;;;;4.40;1.70;;;20.50;54.10;;;;;;5135999;27;20383;-60
2021/10/01 06:47:30;;;;;;;4.60;1.77;;;20.60;54.00;;;;;;5117562;27;20423;-60
2021/10/01 06:53:01;;;;;;;3.65;1.63;;;20.60;54.00;;;;;;5136081;27;20027;-61
2021/10/01 08:19:56;;;;;;;3.65;1.48;;;21.00;54.00;;;;;;5134461;27;20525;-60
2021/10/01 08:22:22;;;;;;;5.00;1.48;;;21.00;54.00;;;;;;5134236;27;20110;-59
2021/10/01 08:24:48;;;;;;;3.33;1.58;;;21.00;53.90;;;;;;5134058;27;20390;-59
2021/10/01 08:27:15;;;;;;;2.83;1.23;;;21.00;53.90;;;;;;5134065;27;20027;-59
2021/10/01 08:29:41;;;;;;;3.88;1.75;;;21.10;53.90;;;;;;5133882;27;20458;-59
2021/10/01 08:32:07;;;;;;;3.88;1.55;;;21.10;53.80;;;;;;5133876;27;20049;-61
2021/10/01 08:34:35;;;;;;;4.00;1.30;;;21.10;53.80;;;;;;5133908;27;20027;-60
2021/10/01 08:37:01;;;;;;;4.15;1.35;;;21.00;53.90;;;;;;5115849;27;20485;-60
2021/10/01 08:39:27;;;;;;;3.05;1.50;;;21.10;53.80;;;;;;5133830;27;20043;-59
2021/10/01 08:41:52;;;;;;;3.05;1.27;;;21.10;53.80;;;;;;5133926;27;20027;-60
2021/10/01 08:44:19;;;;;;;4.40;1.50;;;21.10;53.80;;;;;;5133849;27;20037;-60
2021/10/01 08:46:46;;;;;;;3.42;1.20;;;21.10;53.80;;;;;;5133824;27;20062;-60
2021/10/01 08:49:13;;;;;;;3.67;1.58;;;21.10;53.80;;;;;;5133765;27;20118;-59
2021/10/01 08:51:40;;;;;;;3.55;1.67;;;21.10;53.70;;;;;;5133706;28;20028;-60
2021/10/01 08:54:06;;;;;;;3.35;1.48;;;21.10;53.70;;;;;;5133826;28;20015;-60
2021/10/01 08:56:32;;;;;;;3.45;1.55;;;21.20;53.70;;;;;;5133723;28;20110;-59
2021/10/01 08:58:58;;;;;;;3.63;1.70;;;21.10;53.70;;;;;;5134010;28;20023;-59
2021/10/01 09:01:24;;;;;;;3.85;1.63;;;21.20;53.60;;;;;;5115354;28;20435;-59
2021/10/01 09:03:50;;;;;;;3.60;1.40;;;21.20;53.60;;;;;;5136815;27;20110;-60
2021/10/01 09:06:18;;;;;;;2.53;1.08;;;21.20;53.60;;;;;;5137756;27;20043;-60
2021/10/01 09:09:06;;;;;;;3.10;1.50;;;21.20;53.50;;;;;;5137995;27;20429;-60
2021/10/01 09:11:45;;;;;;;2.80;1.20;;;21.30;53.50;;;;;;5138090;27;20091;-60
2021/10/01 09:14:12;;;;;;;2.10;1.10;;;21.30;53.40;;;;;;5138071;27;20011;-59
2021/10/01 09:16:40;;;;;;;3.45;1.40;;;21.30;53.40;;;;;;5137867;27;20027;-60
2021/10/01 09:19:07;;;;;;;3.83;1.17;;;21.30;53.30;;;;;;5137702;27;20019;-60
2021/10/01 09:21:50;;;;;;;3.13;1.40;;;21.30;53.30;;;;;;5137480;27;20386;-59
2021/10/01 09:24:18;;;;;;;2.78;1.10;;;21.40;53.20;;;;;;5137521;27;20386;-59
2021/10/01 09:26:48;;;;;;;2.25;1.00;;;21.40;53.20;;;;;;5137787;27;20087;-60
2021/10/01 09:29:31;;;;;;;2.45;1.02;;;21.40;53.10;;;;;;5137673;27;20031;-59
2021/10/01 09:31:57;;;;;;;2.67;1.00;;;21.50;53.10;;;;;;5137443;27;20446;-59
2021/10/01 09:34:23;;;;;;;3.30;1.15;;;21.50;53.10;;;;;;5137279;27;20024;-60
2021/10/01 09:37:08;;;;;;;2.60;1.17;;;21.50;53.10;;;;;;5137208;27;20015;-59
2021/10/01 09:39:39;;;;;;;2.38;1.10;;;21.50;53.10;;;;;;5136744;27;20051;-60
2021/10/01 09:42:15;;;;;;;4.53;1.42;;;21.50;53.00;;;;;;5137220;27;20030;-59
2021/10/01 09:44:44;;;;;;;2.47;1.15;;;21.50;53.10;;;;;;5137198;27;20070;-60
2021/10/01 09:47:09;;;;;;;3.00;1.25;;;21.50;53.00;;;;;;5137012;27;20478;-60
2021/10/01 09:49:35;;;;;;;1.40;0.82;;;21.50;52.90;;;;;;5137306;27;20116;-59
2021/10/01 09:52:02;;;;;;;2.47;1.05;;;21.50;52.90;;;;;;5137069;27;20028;-59
2021/10/01 09:54:29;;;;;;;1.40;0.70;;;21.60;52.90;;;;;;5137039;27;20102;-60
2021/10/01 09:57:03;;;;;;;1.70;0.95;;;21.60;52.80;;;;;;5137251;27;20023;-59
2021/10/01 09:59:30;;;;;;;3.28;1.25;;;21.60;52.80;;;;;;5119584;27;20019;-59
2021/10/01 10:02:06;;;;;;;3.05;1.35;;;21.60;52.80;;;;;;5136720;27;20038;-60
2021/10/01 10:04:36;;;;;;;1.98;0.82;;;21.70;52.70;;;;;;5136555;27;20087;-60
2021/10/01 10:07:24;;;;;;;3.22;1.30;;;21.70;52.60;;;;;;5136659;27;20052;-60
2021/10/01 10:09:51;;;;;;;1.90;0.93;;;21.70;52.60;;;;;;5136779;27;20126;-60
2021/10/01 10:12:24;;;;;;;2.35;1.00;;;21.70;52.60;;;;;;5136614;27;20030;-62
2021/10/01 10:14:53;;;;;;;2.80;1.13;;;21.70;52.60;;;;;;5135657;27;20027;-61
2021/10/01 10:17:26;;;;;;;2.28;1.23;;;21.80;52.60;;;;;;5136484;27;20016;-60
2021/10/01 10:19:56;;;;;;;2.38;1.17;;;21.70;52.60;;;;;;5136472;27;20031;-60
2021/10/01 10:22:23;;;;;;;3.00;0.98;;;21.80;52.60;;;;;;5136344;27;20015;-60
2021/10/01 10:24:50;;;;;;;2.47;1.10;;;21.80;52.60;;;;;;5117938;27;20091;-60
2021/10/01 10:27:17;;;;;;;2.95;1.48;;;21.70;52.70;;;;;;5136203;27;20377;-60
2021/10/01 10:29:44;;;;;;;3.25;1.33;;;21.70;52.60;;;;;;5136429;27;20023;-59
2021/10/01 10:32:12;;;;;;;3.25;1.38;;;21.70;52.70;;;;;;5136187;27;20054;-59
2021/10/01 10:34:51;;;;;;;2.47;1.10;;;21.80;52.60;;;;;;5117755;27;20071;-60
2021/10/01 10:37:17;;;;;;;2.13;1.00;;;21.80;52.60;;;;;;5136437;27;20027;-59
2021/10/01 10:39:48;;;;;;;2.83;1.20;;;21.80;52.60;;;;;;5136043;27;20494;-59
2021/10/01 10:42:28;;;;;;;2.33;1.00;;;21.80;52.60;;;;;;5135992;27;20027;-60
2021/10/01 10:45:03;;;;;;;2.20;1.20;;;21.80;52.60;;;;;;5117317;27;20039;-60
2021/10/01 10:47:38;;;;;;;2.33;0.93;;;21.80;52.60;;;;;;5135810;27;20023;-59
2021/10/01 10:50:22;;;;;;;2.33;1.33;;;21.80;52.60;;;;;;5135645;27;20577;-59
2021/10/01 10:53:15;;;;;;;2.50;1.05;;;21.80;52.70;;;;;;5135893;27;20031;-59
2021/10/01 10:55:50;;;;;;;2.85;1.27;;;21.80;52.60;;;;;;5135848;27;20027;-60
2021/10/01 10:58:31;;;;;;;2.83;0.93;;;21.90;52.60;;;;;;5136022;27;20083;-61
2021/10/01 11:01:20;;;;;;;2.65;1.02;;;21.90;52.50;;;;;;5135698;27;20050;-60
2021/10/01 11:03:46;;;;;;;1.70;0.70;;;21.90;52.50;;;;;;5135721;27;20048;-59
2021/10/01 11:06:16;;;;;;;2.15;1.00;;;22.00;52.40;;;;;;5135374;27;20386;-59
2021/10/01 11:09:05;;;;;;;0.95;0.60;;;22.00;52.20;;;;;;5116775;27;20020;-60
2021/10/01 11:11:34;;;;;;;2.28;1.00;;;22.10;52.10;;;;;;5135277;27;20066;-60
2021/10/01 11:14:14;;;;;;;4.63;1.23;;;22.20;51.90;;;;;;5135496;27;20110;-60
2021/10/01 11:16:45;;;;;;;2.20;1.13;;;22.20;51.70;;;;;;5135256;27;20102;-59
2021/10/01 11:19:10;;;;;;;2.25;1.10;;;22.30;51.60;;;;;;5135370;27;20102;-59
2021/10/01 11:21:42;;;;;;;2.40;1.10;;;22.40;51.50;;;;;;5135324;27;20069;-60
2021/10/01 11:24:13;;;;;;;1.85;0.88;;;22.50;51.30;;;;;;5135391;27;20042;-59
2021/10/01 11:26:52;;;;;;;3.03;0.98;;;22.50;51.30;;;;;;5135049;27;20062;-59
2021/10/01 11:29:31;;;;;;;1.98;0.98;;;22.50;51.30;;;;;;5135227;27;20106;-59
2021/10/01 11:32:03;;;;;;;2.15;0.80;;;22.50;51.30;;;;;;5135114;27;20019;-61
2021/10/01 11:34:43;;;;;;;2.47;0.90;;;22.60;51.20;;;;;;5135083;27;20027;-61
2021/10/01 11:37:35;;;;;;;1.95;0.90;;;22.60;51.30;;;;;;5135318;27;20095;-58
2021/10/01 11:40:30;;;;;;;1.65;0.85;;;22.70;51.00;;;;;;5134642;27;20058;-61
2021/10/01 11:43:00;;;;;;;1.85;0.90;;;22.80;50.90;;;;;;5135069;27;20370;-59
2021/10/01 11:45:34;;;;;;;2.35;1.02;;;22.90;50.70;;;;;;5134785;27;20103;-59
2021/10/01 11:48:07;;;;;;;1.58;0.82;;;22.90;50.80;;;;;;5134775;27;20019;-59
2021/10/01 11:50:47;;;;;;;3.22;1.38;;;23.00;50.60;;;;;;5134815;27;20080;-59
2021/10/01 11:53:23;;;;;;;2.92;1.10;;;23.00;50.40;;;;;;5116408;27;20421;-59
2021/10/01 11:55:53;;;;;;;2.00;1.00;;;23.10;50.30;;;;;;5134712;27;20474;-59
2021/10/01 11:58:20;;;;;;;2.58;1.15;;;23.10;50.30;;;;;;5134449;27;20110;-61
2021/10/01 12:00:45;;;;;;;2.22;1.05;;;23.10;50.50;;;;;;5134454;27;20142;-59
2021/10/01 12:03:15;;;;;;;3.08;1.20;;;23.10;50.40;;;;;;5116508;27;20165;-60
2021/10/01 12:05:46;;;;;;;5.50;1.25;;;23.10;50.30;;;;;;5116108;27;20038;-61
2021/10/01 12:08:14;;;;;;;1.85;0.90;;;23.10;50.30;;;;;;5134494;27;20076;-60
2021/10/01 12:10:42;;;;;;;2.78;1.10;;;23.10;50.40;;;;;;5134498;27;20027;-60
2021/10/01 12:13:22;;;;;;;2.47;1.10;;;23.10;50.50;;;;;;5134247;27;20011;-59
2021/10/01 12:16:00;;;;;;;4.25;1.40;;;23.00;49.00;;;;;;5115688;27;20444;-60
2021/10/01 12:18:54;;;;;;;1.80;0.80;;;22.90;50.20;;;;;;5134146;27;20027;-60
2021/10/01 12:21:23;;;;;;;3.13;1.17;;;22.80;50.90;;;;;;5134502;27;20031;-60
2021/10/01 12:23:49;;;;;;;2.45;1.05;;;22.90;50.70;;;;;;5134032;27;20092;-59
2021/10/01 12:26:16;;;;;;;4.82;1.23;;;23.00;50.20;;;;;;5134213;27;20039;-59
2021/10/01 12:28:52;;;;;;;3.00;0.95;;;23.00;49.90;;;;;;5134298;27;20053;-59
2021/10/01 12:31:17;;;;;;;1.73;0.80;;;22.90;50.00;;;;;;5134376;27;20025;-59
2021/10/01 12:33:43;;;;;;;1.23;0.60;;;23.00;50.00;;;;;;5133801;27;20015;-58
2021/10/01 12:36:09;;;;;;;3.00;1.00;;;23.00;50.00;;;;;;5134264;27;20102;-59
2021/10/01 12:38:35;;;;;;;1.98;0.93;;;23.00;49.90;;;;;;5133342;27;20043;-59
2021/10/01 12:41:08;;;;;;;2.83;1.20;;;22.90;50.10;;;;;;5134338;27;20031;-59
2021/10/01 12:43:49;;;;;;;2.90;0.90;;;22.90;50.20;;;;;;5133666;27;20533;-59
2021/10/01 12:46:35;;;;;;;4.57;1.00;;;22.90;50.30;;;;;;5133803;27;20039;-59
2021/10/01 12:49:26;;;;;;;2.47;0.80;;;22.90;50.30;;;;;;5133869;27;20474;-59
2021/10/01 12:52:04;;;;;;;3.22;1.10;;;22.80;50.40;;;;;;5115713;28;20031;-58
2021/10/01 12:54:35;;;;;;;2.65;1.00;;;22.80;50.40;;;;;;5133851;28;20023;-59
2021/10/01 12:57:19;;;;;;;1.67;0.70;;;22.90;50.50;;;;;;5134118;28;20023;-58
2021/10/01 12:59:52;;;;;;;3.08;1.08;;;22.90;50.60;;;;;;5133838;28;20023;-59
2021/10/01 13:02:20;;;;;;;2.03;0.95;;;22.80;50.60;;;;;;5133621;28;20027;-58
2021/10/01 13:05:03;;;;;;;4.05;1.23;;;22.80;50.60;;;;;;5133418;28;20027;-59
2021/10/01 13:07:40;;;;;;;2.03;0.90;;;22.90;50.60;;;;;;5133617;28;20027;-59
2021/10/01 13:10:15;;;;;;;2.50;1.00;;;22.80;50.60;;;;;;5133977;28;20027;-58
2021/10/01 13:12:52;;;;;;;2.05;0.93;;;22.80;50.60;;;;;;5134036;28;20027;-59
2021/10/01 13:15:21;;;;;;;2.75;1.05;;;22.80;50.70;;;;;;5133622;28;20041;-59
2021/10/01 13:18:08;;;;;;;1.95;1.02;;;22.80;50.70;;;;;;5133630;28;20023;-58
2021/10/01 13:20:40;;;;;;;2.17;0.77;;;22.80;50.70;;;;;;5133562;28;20493;-59
2021/10/01 13:23:13;;;;;;;3.55;1.02;;;22.80;50.70;;;;;;5133566;28;20070;-60
2021/10/01 13:25:49;;;;;;;2.08;0.88;;;22.80;50.80;;;;;;5115020;28;20420;-60
2021/10/01 13:28:17;;;;;;;1.23;0.70;;;22.80;50.80;;;;;;5133321;28;20055;-59
2021/10/01 13:30:44;;;;;;;2.33;0.85;;;22.80;50.80;;;;;;5133373;28;20029;-60
2021/10/01 13:33:09;;;;;;;1.88;0.63;;;22.80;50.80;;;;;;5133431;28;20470;-59
2021/10/01 13:35:36;;;;;;;2.47;0.70;;;22.80;50.90;;;;;;5133287;28;20033;-59
2021/10/01 13:38:02;;;;;;;2.85;0.98;;;22.80;50.90;;;;;;5133270;28;20106;-60
2021/10/01 13:40:28;;;;;;;3.10;1.02;;;22.80;50.90;;;;;;5132520;28;20074;-59
2021/10/01 13:42:53;;;;;;;1.42;0.68;;;22.80;50.90;;;;;;5133298;28;20451;-59
2021/10/01 13:45:19;;;;;;;2.92;0.82;;;22.70;50.90;;;;;;5133761;28;20031;-59
2021/10/01 13:47:45;;;;;;;1.90;0.75;;;22.80;50.90;;;;;;5115189;28;20463;-60
2021/10/01 13:50:12;;;;;;;1.58;0.80;;;22.70;50.90;;;;;;5134963;27;20023;-59
2021/10/01 13:52:38;;;;;;;1.08;0.50;;;22.70;51.00;;;;;;5137196;27;20024;-59
2021/10/01 13:55:05;;;;;;;1.90;0.90;;;22.80;50.90;;;;;;5137195;27;20023;-58
2021/10/01 13:57:31;;;;;;;1.92;0.95;;;22.70;51.00;;;;;;5136755;27;20034;-60
2021/10/01 13:59:56;;;;;;;2.92;0.80;;;22.70;51.00;;;;;;5136918;27;20015;-59
2021/10/01 14:02:22;;;;;;;2.75;0.70;;;22.70;51.00;;;;;;5137029;27;20015;-59
2021/10/01 14:04:47;;;;;;;2.05;0.80;;;22.70;51.00;;;;;;5136510;27;20378;-59
2021/10/01 14:07:13;;;;;;;2.92;1.05;;;22.70;51.00;;;;;;5136890;27;20098;-59
2021/10/01 14:09:39;;;;;;;1.70;0.65;;;22.80;51.10;;;;;;5136614;27;20019;-58
2021/10/01 14:12:05;;;;;;;2.40;0.90;;;22.70;51.10;;;;;;5136928;27;20428;-59
2021/10/01 14:14:31;;;;;;;2.47;0.95;;;22.70;51.10;;;;;;5136680;27;20106;-59
2021/10/01 14:16:56;;;;;;;2.10;0.90;;;22.70;51.10;;;;;;5136641;27;20106;-59
2021/10/01 14:19:22;;;;;;;1.73;0.80;;;22.70;51.10;;;;;;5136553;27;20045;-60
2021/10/01 14:21:47;;;;;;;1.70;0.70;;;22.70;51.10;;;;;;5136488;27;20019;-59
2021/10/01 14:24:13;;;;;;;1.55;0.70;;;22.70;51.10;;;;;;5136293;27;20076;-58
2021/10/01 14:26:39;;;;;;;2.40;1.10;;;22.70;51.10;;;;;;5136545;27;20032;-59